createdAt,value
2022-10-28T00:00:07.522Z,1.00
2022-10-28T00:02:33.929Z,1.00
2022-10-28T00:05:00.259Z,1.40
2022-10-28T00:07:28.138Z,1.20
2022-10-28T00:09:54.494Z,1.00
2022-10-28T00:12:20.825Z,0.80
2022-10-28T00:14:47.157Z,1.05
2022-10-28T00:17:13.558Z,0.77
2022-10-28T00:19:39.957Z,1.20
2022-10-28T00:22:06.266Z,1.17
2022-10-28T00:24:32.641Z,1.08
2022-10-28T00:26:58.951Z,0.80
2022-10-28T00:29:25.273Z,1.40
2022-10-28T00:31:52.642Z,1.05
2022-10-28T00:34:21.268Z,0.82
2022-10-28T00:36:47.901Z,0.93
2022-10-28T00:39:15.640Z,1.35
2022-10-28T00:41:43.844Z,0.80
2022-10-28T00:44:28.716Z,1.25
2022-10-28T00:46:55.046Z,1.00
2022-10-28T00:49:23.573Z,1.00
2022-10-28T00:51:53.113Z,1.00
2022-10-28T00:54:19.863Z,0.98
2022-10-28T00:56:48.041Z,0.98
2022-10-28T00:59:18.606Z,0.90
2022-10-28T01:01:45.185Z,0.90
2022-10-28T01:04:12.112Z,1.02
2022-10-28T01:06:38.706Z,1.10
2022-10-28T01:09:05.095Z,1.00
2022-10-28T01:11:31.383Z,1.00
2022-10-28T01:13:57.677Z,1.60
2022-10-28T01:16:49.007Z,1.00
2022-10-28T01:21:51.748Z,1.10
2022-10-28T01:24:18.063Z,1.20
2022-10-28T01:26:54.009Z,1.50
2022-10-28T01:29:32.183Z,1.08
2022-10-28T01:32:11.959Z,0.93
2022-10-28T01:34:50.725Z,0.93
2022-10-28T01:37:25.819Z,0.85
2022-10-28T01:39:55.138Z,0.85
2022-10-28T01:42:21.465Z,1.35
2022-10-28T01:45:03.489Z,1.02
2022-10-28T01:47:32.120Z,1.20
2022-10-28T01:50:18.729Z,1.00
2022-10-28T01:52:46.650Z,1.75
2022-10-28T01:55:18.040Z,1.27
2022-10-28T01:57:44.869Z,0.85
2022-10-28T02:00:11.653Z,0.98
2022-10-28T02:02:41.353Z,0.80
2022-10-28T02:05:26.238Z,0.80
2022-10-28T02:07:53.797Z,0.82
2022-10-28T02:10:22.832Z,1.08
2022-10-28T02:12:51.298Z,1.05
2022-10-28T02:15:23.393Z,1.00
2022-10-28T02:18:08.399Z,1.25
2022-10-28T02:20:40.551Z,1.05
2022-10-28T02:23:17.655Z,0.98
2022-10-28T02:25:47.460Z,1.05
2022-10-28T02:28:16.602Z,0.90
2022-10-28T02:31:02.428Z,1.20
2022-10-28T02:33:31.261Z,0.90
2022-10-28T02:36:01.534Z,1.20
2022-10-28T02:38:30.398Z,1.33
2022-10-28T02:40:59.824Z,1.10
2022-10-28T02:43:26.524Z,1.25
2022-10-28T02:45:55.650Z,0.90
2022-10-28T02:48:27.199Z,0.98
2022-10-28T02:50:55.638Z,0.95
2022-10-28T02:55:55.094Z,1.33
2022-10-28T02:58:21.517Z,1.15
2022-10-28T03:00:47.967Z,0.93
2022-10-28T03:03:14.372Z,0.90
2022-10-28T03:05:40.682Z,1.05
2022-10-28T03:08:07.002Z,0.80
2022-10-28T03:10:34.717Z,1.08
2022-10-28T03:13:01.026Z,1.10
2022-10-28T03:15:27.338Z,0.98
2022-10-28T03:17:55.423Z,1.02
2022-10-28T03:20:22.128Z,1.10
2022-10-28T03:22:49.661Z,0.90
2022-10-28T03:25:16.054Z,1.10
2022-10-28T03:27:42.399Z,0.98
2022-10-28T03:30:08.933Z,0.93
2022-10-28T03:32:35.279Z,1.00
2022-10-28T03:35:01.591Z,1.08
2022-10-28T03:37:27.950Z,0.95
2022-10-28T03:39:54.292Z,1.10
2022-10-28T03:42:20.657Z,1.30
2022-10-28T03:44:47.013Z,1.10
2022-10-28T03:47:13.314Z,0.90
2022-10-28T03:49:39.752Z,1.00
2022-10-28T03:52:06.389Z,0.90
2022-10-28T03:54:32.723Z,1.05
2022-10-28T03:56:59.051Z,0.90
2022-10-28T03:59:25.442Z,1.00
2022-10-28T04:01:51.931Z,1.02
2022-10-28T04:04:18.339Z,0.95
2022-10-28T04:06:44.792Z,1.20
2022-10-28T04:09:11.125Z,0.85
2022-10-28T04:11:37.472Z,0.80
2022-10-28T04:14:03.829Z,0.75
2022-10-28T04:16:30.199Z,0.75
2022-10-28T04:18:56.917Z,0.85
2022-10-28T04:21:23.450Z,0.77
2022-10-28T04:23:49.865Z,1.00
2022-10-28T04:26:16.318Z,1.00
2022-10-28T04:28:42.640Z,1.17
2022-10-28T04:31:10.272Z,1.00
2022-10-28T04:33:36.647Z,0.93
2022-10-28T04:36:03.087Z,1.20
2022-10-28T04:38:29.399Z,1.17
2022-10-28T04:40:55.822Z,1.52
2022-10-28T04:43:22.240Z,0.95
2022-10-28T04:45:48.610Z,0.90
2022-10-28T04:48:14.948Z,1.30
2022-10-28T04:50:41.357Z,1.23
2022-10-28T04:53:10.731Z,1.00
2022-10-28T04:55:37.090Z,0.85
2022-10-28T04:58:03.464Z,0.90
2022-10-28T05:00:30.136Z,1.20
2022-10-28T05:02:57.030Z,0.73
2022-10-28T05:05:23.554Z,1.00
2022-10-28T05:07:49.911Z,0.98
2022-10-28T05:10:17.940Z,0.90
2022-10-28T05:12:47.552Z,0.88
2022-10-28T05:15:14.465Z,1.10
2022-10-28T05:17:43.057Z,0.85
2022-10-28T05:20:10.234Z,1.40
2022-10-28T05:22:36.570Z,1.25
2022-10-28T05:25:03.532Z,1.17
2022-10-28T05:27:29.891Z,1.10
2022-10-28T05:29:56.217Z,1.10
2022-10-28T05:32:22.563Z,0.80
2022-10-28T05:34:48.860Z,1.08
2022-10-28T05:37:15.203Z,0.90
2022-10-28T05:39:41.498Z,0.60
2022-10-28T05:42:07.858Z,0.90
2022-10-28T05:44:34.192Z,1.02
2022-10-28T05:47:00.574Z,1.00
2022-10-28T05:49:26.921Z,1.27
2022-10-28T05:51:53.463Z,0.98
2022-10-28T05:54:19.824Z,0.98
2022-10-28T05:56:46.587Z,1.10
2022-10-28T05:59:12.940Z,1.27
2022-10-28T06:01:39.609Z,1.10
2022-10-28T06:04:06.575Z,1.02
2022-10-28T06:06:32.943Z,1.10
2022-10-28T06:08:59.267Z,0.93
2022-10-28T06:11:24.114Z,0.93
2022-10-28T06:13:50.474Z,1.35
2022-10-28T06:16:16.807Z,1.10
2022-10-28T06:18:43.156Z,1.10
2022-10-28T06:21:09.527Z,1.17
2022-10-28T06:23:35.891Z,0.98
2022-10-28T06:26:03.067Z,0.70
2022-10-28T06:28:30.016Z,1.02
2022-10-28T06:31:03.472Z,1.10
2022-10-28T06:33:31.504Z,1.10
2022-10-28T06:35:58.579Z,0.90
2022-10-28T06:38:25.346Z,1.15
2022-10-28T06:40:52.624Z,1.00
2022-10-28T06:43:19.174Z,1.25
2022-10-28T06:45:46.755Z,1.05
2022-10-28T06:48:14.640Z,1.30
2022-10-28T06:50:41.142Z,1.13
2022-10-28T06:53:07.446Z,1.40
2022-10-28T06:55:33.805Z,1.67
2022-10-28T06:58:01.099Z,0.90
2022-10-28T07:00:28.143Z,1.85
2022-10-28T07:02:55.065Z,1.35
2022-10-28T07:05:22.615Z,1.00
2022-10-28T07:07:49.240Z,1.38
2022-10-28T07:10:15.767Z,1.17
2022-10-28T07:12:42.086Z,1.35
2022-10-28T07:15:09.558Z,0.85
2022-10-28T07:17:35.864Z,1.30
2022-10-28T07:20:02.226Z,1.52
2022-10-28T07:22:28.558Z,0.88
2022-10-28T07:24:54.906Z,1.15
2022-10-28T07:27:21.222Z,0.95
2022-10-28T07:29:47.565Z,1.65
2022-10-28T07:32:13.925Z,1.15
2022-10-28T07:34:40.282Z,0.88
2022-10-28T07:37:06.617Z,1.00
2022-10-28T07:39:33.053Z,1.42
2022-10-28T07:42:01.371Z,1.00
2022-10-28T07:44:28.502Z,0.80
2022-10-28T07:46:57.968Z,0.90
2022-10-28T07:49:25.079Z,1.15
2022-10-28T07:51:51.776Z,1.05
2022-10-28T07:54:18.281Z,0.82
2022-10-28T07:56:44.735Z,0.90
2022-10-28T07:59:11.234Z,1.15
2022-10-28T08:01:37.744Z,1.08
2022-10-28T08:04:04.194Z,0.98
2022-10-28T08:06:30.614Z,0.75
2022-10-28T08:08:57.443Z,0.90
2022-10-28T08:11:24.365Z,0.93
2022-10-28T08:13:51.131Z,0.60
2022-10-28T08:16:17.784Z,0.80
2022-10-28T08:18:45.746Z,0.80
2022-10-28T08:21:12.848Z,0.85
2022-10-28T08:23:39.174Z,1.08
2022-10-28T08:26:05.874Z,0.88
2022-10-28T08:28:32.270Z,0.70
2022-10-28T08:31:10.480Z,0.57
2022-10-28T08:33:38.159Z,0.80
2022-10-28T08:36:04.771Z,0.77
2022-10-28T08:38:31.262Z,0.80
2022-10-28T08:41:08.956Z,1.25
2022-10-28T08:43:56.622Z,0.80
2022-10-28T08:46:50.546Z,0.65
2022-10-28T08:49:18.929Z,0.80
2022-10-28T08:51:47.897Z,0.50
2022-10-28T08:54:20.374Z,1.00
2022-10-28T08:56:47.704Z,0.75
2022-10-28T08:59:17.578Z,0.60
2022-10-28T09:01:47.631Z,0.80
2022-10-28T09:04:35.627Z,0.80
2022-10-28T09:07:03.115Z,0.82
2022-10-28T09:09:29.841Z,0.73
2022-10-28T09:12:10.503Z,0.60
2022-10-28T09:14:57.914Z,0.60
2022-10-28T09:17:30.663Z,0.60
2022-10-28T09:20:03.632Z,0.50
2022-10-28T09:22:48.473Z,0.77
2022-10-28T09:25:22.501Z,0.60
2022-10-28T09:27:49.806Z,0.70
2022-10-28T09:30:26.428Z,0.80
2022-10-28T09:33:08.841Z,0.57
2022-10-28T09:35:41.281Z,0.68
2022-10-28T09:38:13.451Z,0.50
2022-10-28T09:40:42.351Z,0.40
2022-10-28T09:43:18.039Z,0.50
2022-10-28T09:45:46.199Z,0.65
2022-10-28T09:48:21.203Z,0.50
2022-10-28T09:50:50.040Z,0.50
2022-10-28T09:53:26.376Z,0.40
2022-10-28T09:55:52.762Z,0.50
2022-10-28T09:58:19.141Z,0.40
2022-10-28T10:00:45.659Z,0.45
2022-10-28T10:03:12.255Z,0.75
2022-10-28T10:05:40.895Z,0.30
2022-10-28T10:08:11.728Z,0.47
2022-10-28T10:10:52.627Z,0.77
2022-10-28T10:15:48.424Z,0.73
2022-10-28T10:18:17.182Z,0.80
2022-10-28T10:20:48.498Z,0.50
2022-10-28T10:23:31.579Z,0.40
2022-10-28T10:26:11.073Z,0.40
2022-10-28T10:28:40.479Z,0.55
2022-10-28T10:31:08.079Z,0.80
2022-10-28T10:33:35.847Z,0.70
2022-10-28T10:36:05.263Z,0.80
2022-10-28T10:38:31.846Z,0.50
2022-10-28T10:40:58.312Z,0.57
2022-10-28T10:43:34.940Z,0.50
2022-10-28T10:46:01.475Z,0.43
2022-10-28T10:48:28.457Z,0.60
2022-10-28T10:50:55.391Z,0.52
2022-10-28T10:53:31.881Z,0.50
2022-10-28T10:56:05.979Z,0.50
2022-10-28T10:58:33.843Z,0.40
2022-10-28T11:01:02.916Z,0.43
2022-10-28T11:03:39.918Z,0.40
2022-10-28T11:06:24.230Z,0.40
2022-10-28T11:08:55.347Z,0.40
2022-10-28T11:11:22.641Z,0.60
2022-10-28T11:14:01.677Z,0.47
2022-10-28T11:16:28.050Z,0.93
2022-10-28T11:18:54.402Z,0.70
2022-10-28T11:21:43.034Z,0.50
2022-10-28T11:24:16.639Z,0.50
2022-10-28T11:27:12.417Z,0.30
2022-10-28T11:29:38.972Z,0.60
2022-10-28T11:32:13.856Z,0.40
2022-10-28T11:34:50.686Z,0.40
2022-10-28T11:37:52.492Z,0.35
2022-10-28T12:38:40.435Z,0.40
2022-10-28T12:41:18.930Z,0.50
2022-10-28T12:44:01.849Z,0.47
2022-10-28T12:46:44.958Z,0.77
2022-10-28T12:49:30.006Z,0.47
2022-10-28T12:51:57.960Z,0.35
2022-10-28T12:54:32.842Z,0.25
2022-10-28T12:57:11.595Z,0.40
2022-10-28T12:59:39.667Z,0.50
2022-10-28T13:02:11.067Z,0.60
2022-10-28T13:04:37.544Z,0.40
2022-10-28T13:07:06.873Z,0.47
2022-10-28T13:09:37.961Z,0.30
2022-10-28T13:12:24.622Z,0.57
2022-10-28T13:18:04.789Z,0.77
2022-10-28T13:20:41.405Z,0.63
2022-10-28T13:23:27.422Z,0.60
2022-10-28T13:26:18.150Z,0.30
2022-10-28T13:28:47.661Z,0.28
2022-10-28T13:31:15.467Z,0.70
2022-10-28T13:33:54.254Z,0.80
2022-10-28T13:36:29.226Z,0.45
2022-10-28T13:39:02.656Z,0.30
2022-10-28T13:41:35.665Z,0.30
2022-10-28T13:44:15.031Z,0.93
2022-10-28T13:47:00.094Z,0.60
2022-10-28T13:49:41.947Z,0.38
2022-10-28T13:52:11.567Z,0.68
2022-10-28T13:54:44.581Z,0.60
2022-10-28T13:57:31.702Z,0.50
2022-10-28T14:00:00.315Z,0.40
2022-10-28T14:02:42.970Z,0.35
2022-10-28T14:05:14.602Z,0.50
2022-10-28T14:07:56.914Z,0.43
2022-10-28T14:10:34.078Z,0.40
2022-10-28T14:13:33.317Z,0.47
2022-10-28T14:16:19.480Z,0.50
2022-10-28T14:19:11.093Z,0.50
2022-10-28T14:21:44.859Z,0.60
2022-10-28T14:24:16.706Z,0.30
2022-10-28T14:27:02.038Z,0.38
2022-10-28T14:29:30.239Z,0.47
2022-10-28T14:32:01.163Z,0.50
2022-10-28T14:34:45.499Z,0.80
2022-10-28T14:37:33.177Z,1.10
2022-10-28T14:40:08.734Z,0.47
2022-10-28T14:43:14.729Z,0.40
2022-10-28T14:45:44.557Z,0.43
2022-10-28T14:48:27.048Z,0.30
2022-10-28T14:50:54.659Z,0.55
2022-10-28T14:53:46.458Z,0.50
2022-10-28T14:56:19.383Z,0.63
2022-10-28T14:58:46.492Z,0.68
2022-10-28T15:04:04.639Z,0.77
2022-10-28T15:06:48.118Z,0.52
2022-10-28T15:09:22.125Z,0.50
2022-10-28T15:12:07.432Z,0.35
2022-10-28T15:14:41.662Z,0.55
2022-10-28T15:17:19.005Z,0.60
2022-10-28T15:20:09.368Z,0.40
2022-10-28T15:22:36.412Z,0.63
2022-10-28T15:25:05.740Z,0.80
2022-10-28T15:27:40.364Z,0.60
2022-10-28T15:30:24.789Z,0.47
2022-10-28T15:32:55.883Z,0.35
2022-10-28T15:35:35.677Z,0.40
2022-10-28T15:38:21.288Z,0.30
2022-10-28T15:41:10.570Z,1.00
2022-10-28T15:43:41.102Z,0.47
2022-10-28T15:46:23.514Z,0.40
2022-10-28T15:49:01.865Z,0.57
2022-10-28T15:51:42.166Z,0.43
2022-10-28T15:54:19.552Z,0.30
2022-10-28T15:56:57.066Z,0.57
2022-10-28T15:59:25.005Z,0.80
2022-10-28T16:04:47.043Z,0.52
2022-10-28T16:07:14.288Z,0.90
2022-10-28T16:09:54.180Z,0.43
2022-10-28T16:12:37.519Z,0.52
2022-10-28T16:15:06.958Z,0.55
2022-10-28T16:17:40.699Z,0.45
2022-10-28T16:20:23.711Z,0.35
2022-10-28T16:22:50.258Z,0.50
2022-10-28T16:25:20.947Z,0.55
2022-10-28T16:27:48.080Z,0.65
2022-10-28T16:30:15.179Z,0.75
2022-10-28T16:32:43.039Z,0.68
2022-10-28T16:35:13.952Z,0.65
2022-10-28T16:40:30.763Z,0.75
2022-10-28T16:42:58.120Z,0.75
2022-10-28T16:45:24.573Z,0.60
2022-10-28T16:47:50.895Z,0.95
2022-10-28T16:50:17.321Z,0.50
2022-10-28T16:52:43.668Z,0.82
2022-10-28T16:55:14.062Z,0.80
2022-10-28T16:57:40.359Z,0.77
2022-10-28T17:00:07.131Z,0.40
2022-10-28T17:02:35.244Z,0.75
2022-10-28T17:05:04.900Z,0.43
2022-10-28T17:07:31.178Z,0.85
2022-10-28T17:09:57.603Z,0.60
2022-10-28T17:12:25.257Z,0.85
2022-10-28T17:14:51.958Z,0.63
2022-10-28T17:17:18.298Z,0.63
2022-10-28T17:19:45.675Z,0.70
2022-10-28T17:22:12.636Z,0.70
2022-10-28T17:24:39.013Z,0.60
2022-10-28T17:27:05.850Z,0.52
2022-10-28T17:29:32.163Z,0.75
2022-10-28T17:31:58.472Z,0.80
2022-10-28T17:34:24.838Z,0.70
2022-10-28T17:36:51.169Z,1.25
2022-10-28T17:39:21.941Z,0.82
2022-10-28T17:41:51.257Z,1.02
2022-10-28T17:44:17.632Z,0.80
2022-10-28T17:46:43.963Z,0.90
2022-10-28T17:49:10.254Z,0.73
2022-10-28T17:51:36.837Z,0.80
2022-10-28T17:54:06.126Z,0.90
2022-10-28T17:56:32.976Z,0.88
2022-10-28T17:59:02.253Z,0.70
2022-10-28T18:01:32.873Z,0.40
2022-10-28T18:03:59.382Z,0.90
2022-10-28T18:06:26.104Z,0.65
2022-10-28T18:08:52.433Z,1.02
2022-10-28T18:11:20.459Z,0.93
2022-10-28T18:13:49.782Z,0.93
2022-10-28T18:16:17.908Z,0.90
2022-10-28T18:18:44.418Z,1.00
2022-10-28T18:21:11.703Z,0.82
2022-10-28T18:23:38.338Z,1.25
2022-10-28T18:26:10.322Z,0.77
2022-10-28T18:28:37.085Z,0.82
2022-10-28T18:31:05.367Z,1.10
2022-10-28T18:33:32.205Z,0.80
2022-10-28T18:35:59.167Z,0.73
2022-10-28T18:38:25.509Z,0.80
2022-10-28T18:40:51.851Z,1.10
2022-10-28T18:43:18.444Z,1.45
2022-10-28T18:45:44.795Z,0.60
2022-10-28T18:48:11.106Z,0.98
2022-10-28T18:50:37.437Z,0.80
2022-10-28T18:53:03.970Z,0.90
2022-10-28T18:55:30.334Z,1.17
2022-10-28T18:57:56.662Z,0.95
2022-10-28T19:00:23.146Z,0.95
2022-10-28T19:02:49.638Z,0.80
2022-10-28T19:05:16.185Z,0.77
2022-10-28T19:07:42.673Z,0.80
2022-10-28T19:10:09.310Z,0.80
2022-10-28T19:12:40.789Z,1.00
2022-10-28T19:15:10.606Z,1.17
2022-10-28T19:17:36.901Z,0.85
2022-10-28T19:20:03.240Z,0.93
2022-10-28T19:22:29.617Z,0.73
2022-10-28T19:24:55.910Z,0.80
2022-10-28T19:27:22.213Z,1.17
2022-10-28T19:29:48.511Z,1.05
2022-10-28T19:32:14.820Z,0.90
2022-10-28T19:34:41.134Z,1.42
2022-10-28T19:37:07.566Z,1.23
2022-10-28T19:39:33.861Z,0.80
2022-10-28T19:42:00.162Z,1.15
2022-10-28T19:44:26.534Z,0.80
2022-10-28T19:46:52.815Z,1.15
2022-10-28T19:49:22.360Z,1.20
2022-10-28T19:51:51.926Z,1.23
2022-10-28T19:54:18.249Z,0.82
2022-10-28T19:56:45.169Z,1.10
2022-10-28T19:59:11.497Z,0.90
2022-10-28T20:01:39.064Z,1.15
2022-10-28T20:04:06.015Z,1.58
2022-10-28T20:06:33.860Z,1.20
2022-10-28T20:09:00.517Z,1.38
2022-10-28T20:11:28.499Z,1.30
2022-10-28T20:13:55.900Z,1.25
2022-10-28T20:16:22.839Z,0.93
2022-10-28T20:18:49.272Z,1.45
2022-10-28T20:21:16.983Z,0.93
2022-10-28T20:23:44.136Z,1.15
2022-10-28T20:26:11.345Z,0.90
2022-10-28T20:28:38.123Z,1.33
2022-10-28T20:31:07.446Z,0.90
2022-10-28T20:33:34.652Z,1.27
2022-10-28T20:36:00.981Z,1.27
2022-10-28T20:38:27.845Z,1.40
2022-10-28T20:40:55.441Z,1.10
2022-10-28T20:43:22.480Z,1.30
2022-10-28T20:45:56.105Z,1.13
2022-10-28T20:48:22.873Z,1.15
2022-10-28T20:50:52.787Z,1.17
2022-10-28T20:53:21.764Z,1.02
2022-10-28T20:55:48.569Z,1.25
2022-10-28T20:58:14.861Z,1.17
2022-10-28T21:00:41.312Z,1.08
2022-10-28T21:03:07.739Z,1.02
2022-10-28T21:05:34.074Z,0.95
2022-10-28T21:08:00.519Z,1.10
2022-10-28T21:10:26.861Z,1.42
2022-10-28T21:12:53.160Z,2.28
2022-10-28T21:15:19.474Z,1.90
2022-10-28T21:17:45.818Z,1.52
2022-10-28T21:20:12.150Z,2.05
2022-10-28T21:22:38.456Z,2.13
2022-10-28T21:25:05.045Z,1.77
2022-10-28T21:27:31.380Z,2.20
2022-10-28T21:29:57.705Z,1.67
2022-10-28T21:32:24.398Z,1.35
2022-10-28T21:34:50.839Z,1.60
2022-10-28T21:37:17.366Z,1.60
2022-10-28T21:39:43.717Z,2.22
2022-10-28T21:42:10.156Z,1.42
2022-10-28T21:44:36.458Z,1.50
2022-10-28T21:47:02.793Z,1.25
2022-10-28T21:49:29.066Z,1.13
2022-10-28T21:51:55.404Z,0.98
2022-10-28T21:54:21.706Z,1.00
2022-10-28T21:56:49.222Z,1.20
2022-10-28T21:59:15.705Z,1.00
2022-10-28T22:01:42.073Z,1.20
2022-10-28T22:04:08.487Z,1.13
2022-10-28T22:06:34.814Z,0.90
2022-10-28T22:09:03.298Z,1.10
2022-10-28T22:11:29.810Z,1.38
2022-10-28T22:13:58.092Z,1.30
2022-10-28T22:16:24.919Z,1.27
2022-10-28T22:18:51.480Z,1.50
2022-10-28T22:21:19.401Z,1.20
2022-10-28T22:23:45.776Z,1.10
2022-10-28T22:26:13.666Z,1.40
2022-10-28T22:28:40.847Z,0.90
2022-10-28T22:31:08.411Z,1.13
2022-10-28T22:33:35.136Z,1.27
2022-10-28T22:36:02.895Z,0.93
2022-10-28T22:38:29.267Z,1.25
2022-10-28T22:41:05.443Z,1.30
2022-10-28T22:43:32.103Z,1.65
2022-10-28T22:45:58.912Z,0.93
2022-10-28T22:48:25.319Z,1.08
2022-10-28T22:50:51.880Z,2.67
2022-10-28T22:53:18.987Z,1.20
2022-10-28T22:55:46.675Z,1.02
2022-10-28T22:58:13.183Z,1.02
2022-10-28T23:00:39.662Z,1.20
2022-10-28T23:03:06.068Z,1.08
2022-10-28T23:05:32.431Z,1.42
2022-10-28T23:08:01.565Z,1.40
2022-10-28T23:10:28.231Z,0.98
2022-10-28T23:12:55.849Z,1.17
2022-10-28T23:15:22.654Z,1.30
2022-10-28T23:17:50.425Z,1.08
2022-10-28T23:20:20.221Z,0.95
2022-10-28T23:22:46.543Z,1.25
2022-10-28T23:25:13.239Z,1.05
2022-10-28T23:27:40.211Z,1.50
2022-10-28T23:30:07.559Z,0.90
2022-10-28T23:32:34.020Z,1.20
2022-10-28T23:35:00.548Z,1.25
2022-10-28T23:37:26.886Z,1.02
2022-10-28T23:39:53.184Z,1.17
2022-10-28T23:42:19.503Z,1.00
2022-10-28T23:44:45.795Z,0.85
2022-10-28T23:47:12.101Z,1.15
2022-10-28T23:49:38.458Z,1.10
2022-10-28T23:52:05.008Z,1.20
2022-10-28T23:54:31.359Z,1.13
2022-10-28T23:56:57.676Z,0.70
2022-10-28T23:59:23.982Z,1.20
